createdAt,value
2022-08-14T00:01:57.647Z,21.60
2022-08-14T00:04:34.470Z,21.60
2022-08-14T00:07:11.314Z,21.60
2022-08-14T00:09:39.830Z,21.50
2022-08-14T00:12:24.452Z,21.50
2022-08-14T00:14:55.166Z,21.50
2022-08-14T00:17:23.210Z,21.40
2022-08-14T00:19:51.788Z,21.50
2022-08-14T00:22:44.203Z,21.40
2022-08-14T00:25:09.470Z,21.30
2022-08-14T00:27:37.845Z,21.30
2022-08-14T00:30:14.252Z,21.40
2022-08-14T00:32:52.421Z,21.30
2022-08-14T00:36:34.336Z,21.20
2022-08-14T00:38:11.158Z,21.20
2022-08-14T00:40:38.997Z,21.20
2022-08-14T00:43:06.655Z,21.20
2022-08-14T00:45:34.434Z,21.30
2022-08-14T00:48:01.791Z,21.30
2022-08-14T00:50:30.473Z,21.20
2022-08-14T00:53:04.097Z,21.30
2022-08-14T00:55:31.337Z,21.20
2022-08-14T00:58:27.972Z,21.20
2022-08-14T01:01:12.719Z,21.20
2022-08-14T01:03:42.412Z,21.20
2022-08-14T01:06:18.638Z,21.20
2022-08-14T01:08:51.318Z,21.20
2022-08-14T01:11:31.805Z,21.20
2022-08-14T01:14:04.733Z,21.20
2022-08-14T01:16:47.420Z,21.10
2022-08-14T01:19:41.470Z,21.10
2022-08-14T01:22:12.264Z,21.10
2022-08-14T01:24:41.955Z,21.20
2022-08-14T01:27:19.190Z,21.20
2022-08-14T01:30:01.081Z,21.20
2022-08-14T01:32:35.329Z,21.20
2022-08-14T01:35:18.976Z,21.20
2022-08-14T01:37:56.975Z,21.10
2022-08-14T01:40:36.442Z,21.10
2022-08-14T01:43:14.603Z,21.10
2022-08-14T01:45:48.978Z,21.10
2022-08-14T01:48:25.782Z,21.00
2022-08-14T01:50:52.754Z,21.00
2022-08-14T01:53:20.758Z,21.00
2022-08-14T01:55:51.586Z,21.00
2022-08-14T01:58:28.485Z,21.10
2022-08-14T02:00:58.467Z,21.10
2022-08-14T02:03:31.427Z,21.10
2022-08-14T02:06:03.999Z,21.10
2022-08-14T02:08:53.234Z,21.10
2022-08-14T02:11:24.833Z,21.10
2022-08-14T02:14:07.114Z,21.00
2022-08-14T02:16:39.525Z,21.10
2022-08-14T02:19:16.964Z,21.00
2022-08-14T02:21:50.275Z,21.00
2022-08-14T02:24:39.392Z,21.00
2022-08-14T02:28:25.302Z,21.00
2022-08-14T02:30:01.152Z,21.00
2022-08-14T02:32:36.068Z,21.00
2022-08-14T02:35:17.694Z,21.00
2022-08-14T02:37:49.812Z,21.00
2022-08-14T02:40:32.410Z,21.00
2022-08-14T02:43:03.614Z,21.00
2022-08-14T02:45:38.201Z,20.90
2022-08-14T02:49:01.515Z,20.90
2022-08-14T02:51:09.320Z,20.90
2022-08-14T02:53:42.642Z,20.90
2022-08-14T03:07:26.338Z,20.90
2022-08-14T03:10:28.115Z,21.50
2022-08-14T03:12:40.980Z,21.30
2022-08-14T03:15:16.457Z,21.20
2022-08-14T03:17:56.864Z,21.20
2022-08-14T03:20:30.352Z,21.10
2022-08-14T03:23:02.921Z,21.00
2022-08-14T03:25:33.376Z,21.00
2022-08-14T03:28:07.330Z,21.00
2022-08-14T03:30:38.796Z,21.00
2022-08-14T03:33:12.353Z,20.90
2022-08-14T03:36:00.136Z,20.90
2022-08-14T03:39:14.471Z,20.90
2022-08-14T03:41:25.352Z,20.90
2022-08-14T03:45:17.497Z,20.90
2022-08-14T03:46:52.762Z,20.90
2022-08-14T03:49:29.244Z,20.90
2022-08-14T03:52:00.737Z,20.90
2022-08-14T03:54:29.566Z,20.80
2022-08-14T03:57:03.019Z,20.80
2022-08-14T03:59:34.175Z,20.80
2022-08-14T04:02:04.508Z,20.80
2022-08-14T04:04:33.538Z,20.80
2022-08-14T04:07:01.169Z,20.80
2022-08-14T04:09:29.386Z,20.80
2022-08-14T04:11:58.187Z,20.80
2022-08-14T04:14:26.823Z,20.80
2022-08-14T04:16:54.798Z,20.70
2022-08-14T04:19:24.551Z,20.80
2022-08-14T04:22:03.234Z,20.70
2022-08-14T04:24:38.644Z,20.70
2022-08-14T04:27:10.025Z,20.70
2022-08-14T04:29:45.024Z,20.70
2022-08-14T04:32:58.632Z,20.90
2022-08-14T04:35:01.692Z,20.90
2022-08-14T04:37:53.636Z,20.90
2022-08-14T04:40:40.283Z,20.90
2022-08-14T04:43:38.457Z,20.90
2022-08-14T04:46:11.960Z,21.00
2022-08-14T04:49:00.074Z,21.00
2022-08-14T04:51:30.064Z,21.10
2022-08-14T04:54:04.487Z,21.10
2022-08-14T04:56:34.141Z,21.20
2022-08-14T04:59:10.339Z,21.30
2022-08-14T05:01:49.026Z,21.30
2022-08-14T05:04:19.938Z,21.40
2022-08-14T05:06:49.853Z,21.40
2022-08-14T05:09:21.609Z,21.50
2022-08-14T05:11:51.849Z,21.60
2022-08-14T05:14:43.000Z,21.70
2022-08-14T05:17:12.002Z,21.70
2022-08-14T05:19:45.053Z,21.90
2022-08-14T05:22:27.080Z,21.90
2022-08-14T05:24:54.857Z,22.10
2022-08-14T05:27:23.194Z,22.20
2022-08-14T05:29:57.097Z,22.40
2022-08-14T05:32:27.254Z,22.50
2022-08-14T05:35:00.083Z,22.70
2022-08-14T05:37:29.840Z,22.90
2022-08-14T05:39:59.124Z,23.10
2022-08-14T05:42:32.013Z,23.30
2022-08-14T05:45:05.192Z,23.50
2022-08-14T05:47:42.023Z,23.70
2022-08-14T05:50:18.728Z,23.80
2022-08-14T05:52:51.018Z,23.90
2022-08-14T05:55:22.797Z,23.90
2022-08-14T05:58:01.006Z,24.00
2022-08-14T06:00:40.994Z,24.30
2022-08-14T06:03:14.905Z,24.50
2022-08-14T06:05:43.801Z,24.60
2022-08-14T06:08:36.455Z,24.80
2022-08-14T06:11:10.361Z,25.00
2022-08-14T06:13:45.155Z,25.10
2022-08-14T06:16:17.657Z,25.20
2022-08-14T06:18:52.526Z,25.50
2022-08-14T06:21:22.899Z,25.70
2022-08-14T06:23:50.516Z,26.00
2022-08-14T06:26:20.852Z,26.20
2022-08-14T06:28:52.353Z,26.30
2022-08-14T06:31:21.222Z,26.30
2022-08-14T06:35:03.056Z,26.40
2022-08-14T06:36:38.475Z,26.50
2022-08-14T06:39:10.082Z,26.60
2022-08-14T06:41:58.252Z,26.80
2022-08-14T06:44:32.608Z,27.00
2022-08-14T06:47:04.481Z,27.00
2022-08-14T06:49:40.523Z,27.40
2022-08-14T06:52:15.084Z,27.70
2022-08-14T06:54:43.175Z,27.90
2022-08-14T06:57:10.145Z,27.80
2022-08-14T06:59:37.240Z,27.80
2022-08-14T07:02:22.847Z,27.90
2022-08-14T07:05:20.859Z,28.10
2022-08-14T07:07:51.106Z,28.20
2022-08-14T07:10:18.323Z,28.30
2022-08-14T07:12:56.240Z,28.50
2022-08-14T07:15:29.584Z,28.60
2022-08-14T07:18:00.693Z,28.80
2022-08-14T07:20:30.683Z,29.00
2022-08-14T07:23:08.530Z,29.20
2022-08-14T07:25:43.766Z,29.30
2022-08-14T07:28:20.552Z,29.50
2022-08-14T07:30:51.423Z,29.90
2022-08-14T07:33:24.608Z,30.10
2022-08-14T07:36:00.274Z,30.30
2022-08-14T07:38:35.814Z,30.20
2022-08-14T07:41:06.845Z,30.20
2022-08-14T07:43:40.890Z,30.30
2022-08-14T07:46:08.379Z,30.30
2022-08-14T07:48:41.451Z,29.80
2022-08-14T07:51:09.165Z,29.60
2022-08-14T07:53:41.141Z,29.30
2022-08-14T07:56:44.285Z,29.10
2022-08-14T07:58:58.787Z,29.20
2022-08-14T08:01:29.964Z,29.40
2022-08-14T08:04:01.421Z,29.40
2022-08-14T08:06:31.043Z,29.70
2022-08-14T08:09:02.761Z,29.80
2022-08-14T08:11:37.402Z,30.00
2022-08-14T08:14:10.521Z,29.90
2022-08-14T08:16:51.304Z,29.90
2022-08-14T08:19:19.417Z,30.20
2022-08-14T08:21:47.532Z,30.40
2022-08-14T08:24:18.534Z,30.50
2022-08-14T08:26:50.671Z,30.50
2022-08-14T08:29:25.155Z,30.50
2022-08-14T08:32:01.804Z,30.50
2022-08-14T08:34:46.160Z,30.80
2022-08-14T08:37:18.506Z,30.90
2022-08-14T08:40:03.075Z,30.60
2022-08-14T08:42:52.077Z,30.50
2022-08-14T08:45:21.654Z,30.40
2022-08-14T08:47:51.253Z,30.40
2022-08-14T08:53:10.251Z,30.50
2022-08-14T08:55:44.960Z,30.60
2022-08-14T08:58:20.137Z,30.60
2022-08-14T09:00:57.155Z,30.80
2022-08-14T09:03:27.966Z,30.90
2022-08-14T09:05:58.336Z,31.10
2022-08-14T09:08:38.937Z,31.30
2022-08-14T09:11:19.750Z,31.30
2022-08-14T09:13:54.179Z,31.40
2022-08-14T09:16:25.870Z,31.60
2022-08-14T09:18:55.346Z,31.70
2022-08-14T09:21:24.055Z,31.80
2022-08-14T09:24:30.218Z,31.80
2022-08-14T09:26:49.266Z,31.60
2022-08-14T09:29:20.095Z,31.30
2022-08-14T09:31:57.508Z,31.20
2022-08-14T09:34:57.926Z,31.30
2022-08-14T09:38:19.531Z,31.40
2022-08-14T09:41:15.954Z,31.60
2022-08-14T09:44:20.945Z,31.50
2022-08-14T09:47:00.756Z,31.80
2022-08-14T09:49:39.934Z,32.00
2022-08-14T09:52:33.442Z,32.10
2022-08-14T09:54:57.337Z,32.20
2022-08-14T09:57:31.415Z,31.90
2022-08-14T09:59:59.005Z,32.00
2022-08-14T10:02:34.341Z,31.90
2022-08-14T10:05:11.283Z,31.90
2022-08-14T10:07:53.860Z,32.10
2022-08-14T10:10:41.746Z,31.90
2022-08-14T10:13:25.375Z,32.00
2022-08-14T10:16:00.166Z,32.30
2022-08-14T10:18:28.507Z,32.30
2022-08-14T10:21:01.645Z,32.40
2022-08-14T10:23:45.499Z,32.50
2022-08-14T10:26:22.601Z,32.10
2022-08-14T10:29:18.543Z,32.00
2022-08-14T10:31:59.396Z,32.00
2022-08-14T10:34:36.544Z,31.80
2022-08-14T10:37:14.440Z,31.80
2022-08-14T10:40:01.453Z,31.90
2022-08-14T10:42:41.624Z,32.00
2022-08-14T10:45:24.453Z,31.90
2022-08-14T10:48:08.774Z,32.00
2022-08-14T10:50:49.361Z,32.10
2022-08-14T10:53:16.618Z,32.20
2022-08-14T10:55:45.139Z,32.20
2022-08-14T10:58:14.174Z,32.20
2022-08-14T11:00:56.719Z,32.20
2022-08-14T11:03:26.604Z,32.20
2022-08-14T11:06:24.665Z,32.40
2022-08-14T11:08:52.849Z,32.10
2022-08-14T11:11:35.776Z,32.10
2022-08-14T11:14:09.531Z,32.30
2022-08-14T11:16:39.313Z,32.30
2022-08-14T11:19:10.617Z,32.60
2022-08-14T11:21:40.544Z,32.70
2022-08-14T11:24:50.952Z,32.70
2022-08-14T11:27:05.633Z,32.40
2022-08-14T11:29:36.168Z,32.40
2022-08-14T11:32:04.693Z,32.60
2022-08-14T11:34:37.378Z,32.60
2022-08-14T11:37:19.085Z,32.60
2022-08-14T11:39:53.943Z,32.20
2022-08-14T11:42:56.856Z,32.10
2022-08-14T11:45:18.770Z,31.90
2022-08-14T11:48:13.358Z,31.70
2022-08-14T11:50:42.204Z,31.60
2022-08-14T11:53:30.317Z,31.80
2022-08-14T11:56:06.121Z,31.60
2022-08-14T11:58:38.686Z,31.70
2022-08-14T12:01:09.524Z,32.00
2022-08-14T12:03:56.979Z,31.90
2022-08-14T12:06:28.538Z,31.90
2022-08-14T12:09:00.812Z,31.90
2022-08-14T12:11:43.083Z,32.00
2022-08-14T12:14:30.950Z,32.20
2022-08-14T12:17:12.749Z,32.20
2022-08-14T12:19:54.081Z,32.00
2022-08-14T12:22:42.421Z,31.90
2022-08-14T12:25:18.889Z,31.90
2022-08-14T12:27:53.459Z,31.80
2022-08-14T12:30:42.563Z,31.70
2022-08-14T12:33:30.583Z,31.90
2022-08-14T12:36:04.513Z,32.10
2022-08-14T12:38:45.157Z,31.90
2022-08-14T12:41:24.097Z,31.80
2022-08-14T12:44:00.080Z,31.80
2022-08-14T12:46:30.746Z,31.90
2022-08-14T12:49:06.354Z,31.80
2022-08-14T12:51:33.656Z,31.70
2022-08-14T12:54:27.073Z,31.60
2022-08-14T12:57:19.361Z,31.30
2022-08-14T12:59:49.481Z,31.10
2022-08-14T13:02:29.874Z,31.20
2022-08-14T13:04:58.111Z,31.20
2022-08-14T13:07:32.041Z,31.30
2022-08-14T13:10:00.510Z,31.30
2022-08-14T13:13:12.629Z,31.40
2022-08-14T13:15:38.291Z,31.30
2022-08-14T13:18:10.573Z,31.20
2022-08-14T13:20:48.113Z,31.30
2022-08-14T13:23:30.535Z,31.60
2022-08-14T13:26:00.791Z,31.60
2022-08-14T13:28:33.188Z,31.50
2022-08-14T13:31:08.905Z,31.50
2022-08-14T13:33:40.790Z,31.40
2022-08-14T13:36:10.989Z,31.30
2022-08-14T13:38:51.380Z,31.40
2022-08-14T13:41:28.026Z,31.40
2022-08-14T13:44:00.588Z,31.30
2022-08-14T13:46:28.006Z,31.40
2022-08-14T13:48:57.677Z,31.40
2022-08-14T13:51:37.556Z,31.50
2022-08-14T13:54:10.811Z,31.70
2022-08-14T13:56:41.861Z,31.70
2022-08-14T13:59:10.751Z,31.70
2022-08-14T14:01:43.594Z,31.70
2022-08-14T14:04:19.793Z,31.90
2022-08-14T14:06:50.983Z,31.90
2022-08-14T14:09:32.589Z,31.90
2022-08-14T14:12:38.220Z,31.90
2022-08-14T14:15:05.064Z,31.90
2022-08-14T14:17:36.245Z,32.10
2022-08-14T14:20:34.445Z,32.00
2022-08-14T14:23:02.346Z,31.90
2022-08-14T14:25:45.574Z,31.90
2022-08-14T14:28:24.506Z,32.00
2022-08-14T14:30:57.464Z,32.00
2022-08-14T14:33:49.561Z,32.00
2022-08-14T14:36:26.799Z,31.90
2022-08-14T14:39:05.366Z,31.90
2022-08-14T14:41:43.960Z,31.80
2022-08-14T14:44:15.904Z,31.80
2022-08-14T14:46:50.807Z,31.70
2022-08-14T14:49:31.817Z,31.50
2022-08-14T14:52:15.298Z,31.30
2022-08-14T14:54:50.941Z,31.20
2022-08-14T14:57:19.215Z,31.20
2022-08-14T14:59:46.711Z,31.00
2022-08-14T15:02:34.546Z,30.80
2022-08-14T15:05:05.737Z,31.00
2022-08-14T15:07:33.091Z,30.90
2022-08-14T15:10:04.117Z,30.80
2022-08-14T15:12:55.435Z,30.70
2022-08-14T15:15:18.105Z,30.60
2022-08-14T15:17:47.183Z,30.50
2022-08-14T15:20:29.607Z,30.60
2022-08-14T15:23:11.934Z,30.60
2022-08-14T15:25:41.817Z,30.50
2022-08-14T15:28:12.804Z,30.50
2022-08-14T15:30:45.981Z,30.70
2022-08-14T15:34:01.146Z,30.50
2022-08-14T15:36:31.418Z,30.50
2022-08-14T15:38:59.462Z,30.50
2022-08-14T15:41:33.733Z,30.60
2022-08-14T15:44:25.234Z,30.60
2022-08-14T15:46:55.538Z,30.50
2022-08-14T15:49:28.448Z,30.30
2022-08-14T15:52:00.451Z,30.30
2022-08-14T15:54:31.435Z,30.20
2022-08-14T15:57:08.428Z,30.10
2022-08-14T15:59:56.219Z,30.00
2022-08-14T16:02:27.755Z,30.00
2022-08-14T16:04:56.272Z,29.90
2022-08-14T16:07:25.164Z,29.80
2022-08-14T16:10:18.539Z,29.10
2022-08-14T16:12:54.575Z,28.50
2022-08-14T16:15:22.477Z,27.70
2022-08-14T16:17:54.486Z,27.10
2022-08-14T16:20:42.186Z,26.60
2022-08-14T16:23:12.408Z,25.70
2022-08-14T16:25:44.942Z,25.10
2022-08-14T16:31:00.183Z,24.00
2022-08-14T16:33:58.875Z,23.50
2022-08-14T16:36:30.559Z,23.10
2022-08-14T16:39:00.751Z,22.70
2022-08-14T16:41:29.387Z,22.40
2022-08-14T16:44:04.640Z,22.50
2022-08-14T16:46:42.937Z,22.60
2022-08-14T16:49:14.580Z,22.70
2022-08-14T16:51:45.258Z,22.80
2022-08-14T16:54:34.569Z,22.90
2022-08-14T16:57:22.485Z,23.00
2022-08-14T16:59:57.779Z,23.00
2022-08-14T17:02:34.419Z,23.10
2022-08-14T17:05:22.724Z,23.30
2022-08-14T17:08:28.611Z,23.40
2022-08-14T17:10:51.663Z,23.50
2022-08-14T17:13:59.935Z,23.60
2022-08-14T17:16:24.755Z,23.70
2022-08-14T17:19:01.032Z,23.70
2022-08-14T17:21:41.549Z,23.70
2022-08-14T17:24:58.364Z,23.70
2022-08-14T17:27:03.995Z,23.70
2022-08-14T17:29:44.659Z,23.70
2022-08-14T17:32:44.275Z,23.80
2022-08-14T17:35:26.687Z,23.90
2022-08-14T17:38:38.643Z,23.90
2022-08-14T17:41:23.797Z,23.90
2022-08-14T17:46:43.352Z,24.00
2022-08-14T17:49:18.139Z,24.10
2022-08-14T17:52:16.748Z,24.10
2022-08-14T17:54:53.000Z,24.20
2022-08-14T17:57:28.585Z,24.10
2022-08-14T17:59:59.159Z,23.90
2022-08-14T18:02:31.499Z,23.40
2022-08-14T18:05:00.706Z,22.90
2022-08-14T18:07:59.738Z,22.70
2022-08-14T18:10:53.149Z,22.70
2022-08-14T18:13:08.070Z,22.80
2022-08-14T18:15:41.435Z,22.50
2022-08-14T18:18:11.759Z,22.20
2022-08-14T18:21:40.565Z,22.20
2022-08-14T18:23:28.538Z,22.10
2022-08-14T18:25:58.641Z,22.10
2022-08-14T18:28:48.661Z,22.10
2022-08-14T18:31:21.676Z,22.10
2022-08-14T18:34:32.008Z,22.00
2022-08-14T18:37:16.720Z,22.10
2022-08-14T18:40:01.752Z,22.30
2022-08-14T18:42:34.897Z,22.40
2022-08-14T18:45:12.874Z,22.60
2022-08-14T18:48:14.061Z,22.70
2022-08-14T18:50:32.480Z,22.80
2022-08-14T18:53:11.042Z,23.00
2022-08-14T18:55:52.767Z,23.10
2022-08-14T18:58:31.768Z,23.30
2022-08-14T19:01:04.638Z,23.30
2022-08-14T19:03:39.060Z,23.20
2022-08-14T19:06:10.066Z,23.20
2022-08-14T19:08:49.483Z,23.20
2022-08-14T19:11:51.532Z,23.30
2022-08-14T19:14:47.575Z,23.30
2022-08-14T19:18:10.583Z,23.30
2022-08-14T19:21:02.482Z,23.30
2022-08-14T19:23:44.056Z,23.20
2022-08-14T19:26:36.074Z,23.10
2022-08-14T19:29:37.712Z,23.20
2022-08-14T19:32:36.836Z,23.20
2022-08-14T19:35:48.719Z,23.30
2022-08-14T19:38:51.787Z,23.40
2022-08-14T19:41:29.850Z,23.40
2022-08-14T19:44:19.063Z,23.40
2022-08-14T19:47:02.538Z,23.40
2022-08-14T19:50:07.930Z,23.30
2022-08-14T19:52:37.193Z,23.30
2022-08-14T19:55:19.818Z,23.30
2022-08-14T19:57:57.918Z,23.20
2022-08-14T20:00:30.010Z,23.20
2022-08-14T20:03:11.737Z,23.30
2022-08-14T20:05:45.828Z,23.30
2022-08-14T20:10:59.042Z,23.30
2022-08-14T20:11:20.580Z,23.40
2022-08-14T20:14:11.999Z,23.40
2022-08-14T20:16:51.258Z,23.40
2022-08-14T20:19:28.826Z,23.40
2022-08-14T20:22:34.719Z,23.40
2022-08-14T20:24:54.165Z,23.40
2022-08-14T20:27:44.057Z,23.40
2022-08-14T20:30:33.876Z,23.40
2022-08-14T20:33:11.579Z,23.40
2022-08-14T20:35:52.235Z,23.40
2022-08-14T20:38:33.663Z,23.40
2022-08-14T20:41:09.754Z,23.30
2022-08-14T20:44:00.926Z,23.30
2022-08-14T20:46:38.590Z,23.20
2022-08-14T20:49:22.212Z,23.10
2022-08-14T20:52:05.192Z,23.10
2022-08-14T20:54:50.729Z,23.10
2022-08-14T20:57:19.006Z,23.00
2022-08-14T20:59:53.095Z,23.00
2022-08-14T21:02:46.610Z,23.00
2022-08-14T21:05:34.038Z,23.00
2022-08-14T21:08:08.489Z,22.90
2022-08-14T21:10:44.518Z,22.90
2022-08-14T21:14:08.754Z,23.00
2022-08-14T21:16:34.613Z,22.90
2022-08-14T21:18:58.679Z,22.90
2022-08-14T21:21:41.755Z,22.90
2022-08-14T21:24:38.716Z,22.90
2022-08-14T21:27:12.677Z,22.90
2022-08-14T21:29:55.022Z,22.80
2022-08-14T21:32:34.670Z,22.80
2022-08-14T21:35:10.081Z,22.70
2022-08-14T21:37:45.969Z,22.70
2022-08-14T21:40:42.245Z,22.70
2022-08-14T21:43:17.958Z,22.60
2022-08-14T21:45:53.497Z,22.60
2022-08-14T21:48:29.471Z,22.70
2022-08-14T21:51:55.289Z,22.60
2022-08-14T21:53:58.330Z,22.60
2022-08-14T21:56:39.048Z,22.60
2022-08-14T21:59:17.485Z,22.50
2022-08-14T22:02:00.726Z,22.60
2022-08-14T22:04:40.011Z,22.50
2022-08-14T22:07:17.445Z,22.50
2022-08-14T22:09:55.504Z,22.50
2022-08-14T22:12:58.332Z,22.50
2022-08-14T22:15:19.268Z,22.30
2022-08-14T22:17:50.986Z,22.30
2022-08-14T22:20:21.579Z,22.20
2022-08-14T22:22:56.047Z,22.10
2022-08-14T22:25:32.957Z,22.20
2022-08-14T22:28:05.677Z,22.10
2022-08-14T22:30:34.881Z,22.10
2022-08-14T22:33:02.471Z,22.10
2022-08-14T22:35:29.900Z,22.10
2022-08-14T22:38:34.444Z,22.10
2022-08-14T22:41:09.519Z,22.10
2022-08-14T22:43:35.199Z,22.10
2022-08-14T22:46:14.543Z,22.00
2022-08-14T22:48:45.324Z,22.10
2022-08-14T22:51:18.753Z,22.00
2022-08-14T22:53:52.533Z,22.00
2022-08-14T22:56:29.332Z,22.00
2022-08-14T22:59:01.811Z,22.00
2022-08-14T23:01:55.706Z,21.90
2022-08-14T23:04:34.995Z,21.90
2022-08-14T23:07:21.945Z,21.90
2022-08-14T23:10:32.190Z,21.90
2022-08-14T23:12:54.690Z,22.00
2022-08-14T23:15:24.538Z,21.90
2022-08-14T23:17:56.038Z,21.90
2022-08-14T23:20:29.276Z,21.90
2022-08-14T23:22:58.400Z,22.00
2022-08-14T23:25:56.844Z,22.00
2022-08-14T23:28:32.974Z,22.00
2022-08-14T23:31:15.290Z,21.90
2022-08-14T23:34:07.105Z,21.90
2022-08-14T23:36:53.325Z,22.00
2022-08-14T23:39:33.291Z,22.00
2022-08-14T23:42:08.396Z,21.90
2022-08-14T23:44:38.211Z,21.90
2022-08-14T23:47:12.047Z,21.90
2022-08-14T23:50:01.297Z,21.80
2022-08-14T23:52:51.050Z,21.80
2022-08-14T23:55:32.077Z,21.80
2022-08-14T23:58:00.679Z,21.80
